Parowan, Utah
Current Conditions -  °F | °C
As of 12:53 AM on Saturday 25 Oct 2014 (Local Time) from KCDC Reporting Station
Clear Clear  
Wind Chill:   Ceiling: Unl
Heat Index:   Visibility: 10mi
Dew Point: -1°   Wind: 5mph
Humidity: 52%   Direction: 160°SSE
Pressure: 30.23"   Gusts: NA
Location:  37.84°N, 112.83°W
Report Text: KCDC 250653Z AUTO 16004KT 10SM CLR 09/M01 A3023 RMK AO2 SLP181 T00891006 402440028 TSNO
Loading
Personal Weather Stations






























Interactive Weather Map
Tropical Storm Tracking
New forecast layout! Learn more

10-Day Weather Forecast

Advertisements
Track Severe Weather on mobile